sensor_id;sensor_type;location;lat;lon;timestamp;temperature;humidity
8832;DHT22;4452;50.756;4.472;2023-09-18T00:01:57;20.00;99.90
8832;DHT22;4452;50.756;4.472;2023-09-18T00:04:23;20.00;99.90
8832;DHT22;4452;50.756;4.472;2023-09-18T00:06:49;20.10;99.90
8832;DHT22;4452;50.756;4.472;2023-09-18T00:09:15;20.00;99.90
8832;DHT22;4452;50.756;4.472;2023-09-18T00:11:41;20.00;99.90
8832;DHT22;4452;50.756;4.472;2023-09-18T00:14:10;19.90;99.90
8832;DHT22;4452;50.756;4.472;2023-09-18T00:16:36;19.70;99.90
8832;DHT22;4452;50.756;4.472;2023-09-18T00:19:02;19.80;99.90
8832;DHT22;4452;50.756;4.472;2023-09-18T00:21:28;19.90;99.90
8832;DHT22;4452;50.756;4.472;2023-09-18T00:23:56;19.90;99.90
8832;DHT22;4452;50.756;4.472;2023-09-18T00:26:25;20.00;99.90
8832;DHT22;4452;50.756;4.472;2023-09-18T00:28:50;19.90;99.90
8832;DHT22;4452;50.756;4.472;2023-09-18T00:31:16;20.20;99.90
8832;DHT22;4452;50.756;4.472;2023-09-18T00:33:42;20.30;99.90
8832;DHT22;4452;50.756;4.472;2023-09-18T00:36:07;20.40;99.90
8832;DHT22;4452;50.756;4.472;2023-09-18T00:38:33;20.30;99.90
8832;DHT22;4452;50.756;4.472;2023-09-18T00:40:59;20.20;99.90
8832;DHT22;4452;50.756;4.472;2023-09-18T00:43:24;20.30;99.90
8832;DHT22;4452;50.756;4.472;2023-09-18T00:45:50;20.30;99.90
8832;DHT22;4452;50.756;4.472;2023-09-18T00:48:16;20.30;99.90
8832;DHT22;4452;50.756;4.472;2023-09-18T00:50:44;20.20;99.90
8832;DHT22;4452;50.756;4.472;2023-09-18T00:53:14;20.20;99.90
8832;DHT22;4452;50.756;4.472;2023-09-18T00:55:41;20.20;99.90
8832;DHT22;4452;50.756;4.472;2023-09-18T00:58:07;20.10;99.90
8832;DHT22;4452;50.756;4.472;2023-09-18T01:00:33;20.10;99.90
8832;DHT22;4452;50.756;4.472;2023-09-18T01:03:01;20.20;99.90
8832;DHT22;4452;50.756;4.472;2023-09-18T01:05:27;20.20;99.90
8832;DHT22;4452;50.756;4.472;2023-09-18T01:07:53;20.10;99.90
8832;DHT22;4452;50.756;4.472;2023-09-18T01:10:18;20.10;99.90
8832;DHT22;4452;50.756;4.472;2023-09-18T01:12:52;20.10;99.90
8832;DHT22;4452;50.756;4.472;2023-09-18T01:15:22;20.00;99.90
8832;DHT22;4452;50.756;4.472;2023-09-18T01:17:52;20.00;99.90
8832;DHT22;4452;50.756;4.472;2023-09-18T01:20:18;20.00;99.90
8832;DHT22;4452;50.756;4.472;2023-09-18T01:22:44;20.00;99.90
8832;DHT22;4452;50.756;4.472;2023-09-18T01:25:10;20.00;99.90
8832;DHT22;4452;50.756;4.472;2023-09-18T01:27:35;19.90;99.90
8832;DHT22;4452;50.756;4.472;2023-09-18T01:30:01;19.90;99.90
8832;DHT22;4452;50.756;4.472;2023-09-18T01:32:30;19.80;99.90
8832;DHT22;4452;50.756;4.472;2023-09-18T01:35:00;19.70;99.90
8832;DHT22;4452;50.756;4.472;2023-09-18T01:37:29;19.70;99.90
8832;DHT22;4452;50.756;4.472;2023-09-18T01:39:55;19.70;99.90
8832;DHT22;4452;50.756;4.472;2023-09-18T01:42:27;19.60;99.90
8832;DHT22;4452;50.756;4.472;2023-09-18T01:44:54;19.60;99.90
8832;DHT22;4452;50.756;4.472;2023-09-18T01:47:21;19.50;99.90
8832;DHT22;4452;50.756;4.472;2023-09-18T01:49:49;19.40;99.90
8832;DHT22;4452;50.756;4.472;2023-09-18T01:52:14;19.40;99.90
8832;DHT22;4452;50.756;4.472;2023-09-18T01:54:40;19.40;99.90
8832;DHT22;4452;50.756;4.472;2023-09-18T01:57:06;19.40;99.90
8832;DHT22;4452;50.756;4.472;2023-09-18T01:59:34;19.40;99.90
8832;DHT22;4452;50.756;4.472;2023-09-18T02:02:00;19.40;99.90
8832;DHT22;4452;50.756;4.472;2023-09-18T02:04:29;19.50;99.90
8832;DHT22;4452;50.756;4.472;2023-09-18T02:06:55;19.40;99.90
8832;DHT22;4452;50.756;4.472;2023-09-18T02:09:22;19.40;99.90
8832;DHT22;4452;50.756;4.472;2023-09-18T02:11:48;19.50;99.90
8832;DHT22;4452;50.756;4.472;2023-09-18T02:14:14;19.40;99.90
8832;DHT22;4452;50.756;4.472;2023-09-18T02:16:42;19.30;99.90
8832;DHT22;4452;50.756;4.472;2023-09-18T02:19:12;19.20;99.90
8832;DHT22;4452;50.756;4.472;2023-09-18T02:21:44;19.20;99.90
8832;DHT22;4452;50.756;4.472;2023-09-18T02:24:10;19.20;99.90
8832;DHT22;4452;50.756;4.472;2023-09-18T02:26:35;19.20;99.90
8832;DHT22;4452;50.756;4.472;2023-09-18T02:29:05;19.20;99.90
8832;DHT22;4452;50.756;4.472;2023-09-18T02:31:30;19.20;99.90
8832;DHT22;4452;50.756;4.472;2023-09-18T02:33:56;19.20;99.90
8832;DHT22;4452;50.756;4.472;2023-09-18T02:36:22;19.20;99.90
8832;DHT22;4452;50.756;4.472;2023-09-18T02:38:48;19.10;99.90
8832;DHT22;4452;50.756;4.472;2023-09-18T02:41:13;19.10;99.90
8832;DHT22;4452;50.756;4.472;2023-09-18T02:43:39;19.10;99.90
8832;DHT22;4452;50.756;4.472;2023-09-18T02:46:05;19.10;99.90
8832;DHT22;4452;50.756;4.472;2023-09-18T02:48:31;19.10;99.90
8832;DHT22;4452;50.756;4.472;2023-09-18T02:51:01;19.10;99.90
8832;DHT22;4452;50.756;4.472;2023-09-18T02:53:27;19.10;99.90
8832;DHT22;4452;50.756;4.472;2023-09-18T02:55:56;19.10;99.90
8832;DHT22;4452;50.756;4.472;2023-09-18T02:58:22;19.10;99.90
8832;DHT22;4452;50.756;4.472;2023-09-18T03:00:49;19.10;99.90
8832;DHT22;4452;50.756;4.472;2023-09-18T03:03:16;19.10;99.90
8832;DHT22;4452;50.756;4.472;2023-09-18T03:05:43;19.10;99.90
8832;DHT22;4452;50.756;4.472;2023-09-18T03:08:10;19.10;99.90
8832;DHT22;4452;50.756;4.472;2023-09-18T03:10:37;19.10;99.90
8832;DHT22;4452;50.756;4.472;2023-09-18T03:13:06;19.10;99.90
8832;DHT22;4452;50.756;4.472;2023-09-18T03:15:32;19.10;99.90
8832;DHT22;4452;50.756;4.472;2023-09-18T03:17:58;19.20;99.90
8832;DHT22;4452;50.756;4.472;2023-09-18T03:20:28;19.10;99.90
8832;DHT22;4452;50.756;4.472;2023-09-18T03:22:56;19.10;99.90
8832;DHT22;4452;50.756;4.472;2023-09-18T03:25:23;19.20;99.90
8832;DHT22;4452;50.756;4.472;2023-09-18T03:27:50;19.20;99.90
8832;DHT22;4452;50.756;4.472;2023-09-18T03:30:17;19.20;99.90
8832;DHT22;4452;50.756;4.472;2023-09-18T03:32:43;19.20;99.90
8832;DHT22;4452;50.756;4.472;2023-09-18T03:35:11;19.10;99.90
8832;DHT22;4452;50.756;4.472;2023-09-18T03:37:44;19.20;99.90
8832;DHT22;4452;50.756;4.472;2023-09-18T03:40:10;19.20;99.90
8832;DHT22;4452;50.756;4.472;2023-09-18T03:42:36;19.10;99.90
8832;DHT22;4452;50.756;4.472;2023-09-18T03:45:02;19.20;99.90
8832;DHT22;4452;50.756;4.472;2023-09-18T03:47:28;19.20;99.90
8832;DHT22;4452;50.756;4.472;2023-09-18T03:49:54;19.10;99.90
8832;DHT22;4452;50.756;4.472;2023-09-18T03:52:20;19.10;99.90
8832;DHT22;4452;50.756;4.472;2023-09-18T03:54:46;19.10;99.90
8832;DHT22;4452;50.756;4.472;2023-09-18T03:57:11;19.10;99.90
8832;DHT22;4452;50.756;4.472;2023-09-18T03:59:37;19.00;99.90
8832;DHT22;4452;50.756;4.472;2023-09-18T04:02:03;19.00;99.90
8832;DHT22;4452;50.756;4.472;2023-09-18T04:04:29;19.00;99.90
8832;DHT22;4452;50.756;4.472;2023-09-18T04:06:55;19.00;99.90
8832;DHT22;4452;50.756;4.472;2023-09-18T04:09:21;18.90;99.90
8832;DHT22;4452;50.756;4.472;2023-09-18T04:11:46;18.90;99.90
8832;DHT22;4452;50.756;4.472;2023-09-18T04:14:12;18.90;99.90
8832;DHT22;4452;50.756;4.472;2023-09-18T04:16:38;18.90;99.90
8832;DHT22;4452;50.756;4.472;2023-09-18T04:19:07;18.90;99.90
8832;DHT22;4452;50.756;4.472;2023-09-18T04:21:33;18.90;99.90
8832;DHT22;4452;50.756;4.472;2023-09-18T04:23:59;18.90;99.90
8832;DHT22;4452;50.756;4.472;2023-09-18T04:26:25;18.90;99.90
8832;DHT22;4452;50.756;4.472;2023-09-18T04:28:58;18.80;99.90
8832;DHT22;4452;50.756;4.472;2023-09-18T04:31:24;18.80;99.90
8832;DHT22;4452;50.756;4.472;2023-09-18T04:33:50;18.70;99.90
8832;DHT22;4452;50.756;4.472;2023-09-18T04:36:16;18.70;99.90
8832;DHT22;4452;50.756;4.472;2023-09-18T04:38:41;18.60;99.90
8832;DHT22;4452;50.756;4.472;2023-09-18T04:41:07;18.60;99.90
8832;DHT22;4452;50.756;4.472;2023-09-18T04:43:36;18.50;99.90
8832;DHT22;4452;50.756;4.472;2023-09-18T04:46:04;18.50;99.90
8832;DHT22;4452;50.756;4.472;2023-09-18T04:48:31;18.50;99.90
8832;DHT22;4452;50.756;4.472;2023-09-18T04:51:00;18.40;99.90
8832;DHT22;4452;50.756;4.472;2023-09-18T04:53:30;18.40;99.90
8832;DHT22;4452;50.756;4.472;2023-09-18T04:55:56;18.30;99.90
8832;DHT22;4452;50.756;4.472;2023-09-18T04:58:23;18.30;99.90
8832;DHT22;4452;50.756;4.472;2023-09-18T05:00:56;18.30;99.90
8832;DHT22;4452;50.756;4.472;2023-09-18T05:03:23;18.30;99.90
8832;DHT22;4452;50.756;4.472;2023-09-18T05:05:49;18.30;99.90
8832;DHT22;4452;50.756;4.472;2023-09-18T05:08:15;18.20;99.90
8832;DHT22;4452;50.756;4.472;2023-09-18T05:10:41;18.30;99.90
8832;DHT22;4452;50.756;4.472;2023-09-18T05:13:09;18.30;99.90
8832;DHT22;4452;50.756;4.472;2023-09-18T05:15:37;18.30;99.90
8832;DHT22;4452;50.756;4.472;2023-09-18T05:18:09;18.20;99.90
8832;DHT22;4452;50.756;4.472;2023-09-18T05:20:37;18.20;99.90
8832;DHT22;4452;50.756;4.472;2023-09-18T05:23:06;18.20;99.90
8832;DHT22;4452;50.756;4.472;2023-09-18T05:25:34;18.20;99.90
8832;DHT22;4452;50.756;4.472;2023-09-18T05:28:04;18.10;99.90
8832;DHT22;4452;50.756;4.472;2023-09-18T05:30:35;18.10;99.90
8832;DHT22;4452;50.756;4.472;2023-09-18T05:33:04;18.10;99.90
8832;DHT22;4452;50.756;4.472;2023-09-18T05:35:31;18.10;99.90
8832;DHT22;4452;50.756;4.472;2023-09-18T05:37:57;18.10;99.90
8832;DHT22;4452;50.756;4.472;2023-09-18T05:40:24;18.00;99.90
8832;DHT22;4452;50.756;4.472;2023-09-18T05:42:53;18.00;99.90
8832;DHT22;4452;50.756;4.472;2023-09-18T05:45:19;18.00;99.90
8832;DHT22;4452;50.756;4.472;2023-09-18T05:47:44;18.00;99.90
8832;DHT22;4452;50.756;4.472;2023-09-18T05:50:11;18.00;99.90
8832;DHT22;4452;50.756;4.472;2023-09-18T05:52:47;17.90;99.90
8832;DHT22;4452;50.756;4.472;2023-09-18T05:55:15;17.90;99.90
8832;DHT22;4452;50.756;4.472;2023-09-18T05:57:41;18.00;99.90
8832;DHT22;4452;50.756;4.472;2023-09-18T06:00:07;18.00;99.90
8832;DHT22;4452;50.756;4.472;2023-09-18T06:02:33;17.90;99.90
8832;DHT22;4452;50.756;4.472;2023-09-18T06:05:00;17.90;99.90
8832;DHT22;4452;50.756;4.472;2023-09-18T06:07:29;17.90;99.90
8832;DHT22;4452;50.756;4.472;2023-09-18T06:09:56;17.90;99.90
8832;DHT22;4452;50.756;4.472;2023-09-18T06:12:22;18.00;99.90
8832;DHT22;4452;50.756;4.472;2023-09-18T06:14:49;18.00;99.90
8832;DHT22;4452;50.756;4.472;2023-09-18T06:17:15;18.00;99.90
8832;DHT22;4452;50.756;4.472;2023-09-18T06:19:42;17.90;99.90
8832;DHT22;4452;50.756;4.472;2023-09-18T06:22:08;18.00;99.90
8832;DHT22;4452;50.756;4.472;2023-09-18T06:24:34;18.00;99.90
8832;DHT22;4452;50.756;4.472;2023-09-18T06:27:01;18.00;99.90
8832;DHT22;4452;50.756;4.472;2023-09-18T06:29:26;18.00;99.90
8832;DHT22;4452;50.756;4.472;2023-09-18T06:31:52;18.10;99.90
8832;DHT22;4452;50.756;4.472;2023-09-18T06:34:18;18.00;99.90
8832;DHT22;4452;50.756;4.472;2023-09-18T06:36:43;18.00;99.90
8832;DHT22;4452;50.756;4.472;2023-09-18T06:39:09;18.10;99.90
8832;DHT22;4452;50.756;4.472;2023-09-18T06:41:34;18.10;99.90
8832;DHT22;4452;50.756;4.472;2023-09-18T06:44:01;18.00;99.90
8832;DHT22;4452;50.756;4.472;2023-09-18T06:46:29;18.10;99.90
8832;DHT22;4452;50.756;4.472;2023-09-18T06:48:56;18.10;99.90
8832;DHT22;4452;50.756;4.472;2023-09-18T06:51:22;18.10;99.90
8832;DHT22;4452;50.756;4.472;2023-09-18T06:53:49;18.20;99.90
8832;DHT22;4452;50.756;4.472;2023-09-18T06:56:18;18.20;99.90
8832;DHT22;4452;50.756;4.472;2023-09-18T06:58:46;18.20;99.90
8832;DHT22;4452;50.756;4.472;2023-09-18T07:01:15;18.20;99.90
8832;DHT22;4452;50.756;4.472;2023-09-18T07:03:47;18.20;99.90
8832;DHT22;4452;50.756;4.472;2023-09-18T07:06:16;18.20;99.90
8832;DHT22;4452;50.756;4.472;2023-09-18T07:08:44;18.20;99.90
8832;DHT22;4452;50.756;4.472;2023-09-18T07:11:10;18.20;99.90
8832;DHT22;4452;50.756;4.472;2023-09-18T07:13:38;18.20;99.90
8832;DHT22;4452;50.756;4.472;2023-09-18T07:16:04;18.20;99.90
8832;DHT22;4452;50.756;4.472;2023-09-18T07:18:29;18.20;99.90
8832;DHT22;4452;50.756;4.472;2023-09-18T07:20:55;18.20;99.90
8832;DHT22;4452;50.756;4.472;2023-09-18T07:23:21;18.20;99.90
8832;DHT22;4452;50.756;4.472;2023-09-18T07:25:50;18.20;99.90
8832;DHT22;4452;50.756;4.472;2023-09-18T07:28:15;18.30;99.90
8832;DHT22;4452;50.756;4.472;2023-09-18T07:30:46;18.30;99.90
8832;DHT22;4452;50.756;4.472;2023-09-18T07:33:13;18.30;99.90
8832;DHT22;4452;50.756;4.472;2023-09-18T07:35:46;18.30;99.90
8832;DHT22;4452;50.756;4.472;2023-09-18T07:38:16;18.40;99.90
8832;DHT22;4452;50.756;4.472;2023-09-18T07:40:46;18.60;99.90
8832;DHT22;4452;50.756;4.472;2023-09-18T07:43:14;18.70;99.90
8832;DHT22;4452;50.756;4.472;2023-09-18T07:45:43;18.80;99.90
8832;DHT22;4452;50.756;4.472;2023-09-18T07:48:11;18.90;99.90
8832;DHT22;4452;50.756;4.472;2023-09-18T07:50:43;19.00;99.90
8832;DHT22;4452;50.756;4.472;2023-09-18T07:53:13;19.20;99.90
8832;DHT22;4452;50.756;4.472;2023-09-18T07:55:41;19.20;99.90
8832;DHT22;4452;50.756;4.472;2023-09-18T07:58:08;19.30;99.90
8832;DHT22;4452;50.756;4.472;2023-09-18T08:00:36;19.30;99.90
8832;DHT22;4452;50.756;4.472;2023-09-18T08:03:04;19.30;99.90
8832;DHT22;4452;50.756;4.472;2023-09-18T08:05:31;19.40;99.90
8832;DHT22;4452;50.756;4.472;2023-09-18T08:07:57;19.50;99.90
8832;DHT22;4452;50.756;4.472;2023-09-18T08:10:25;19.60;99.90
8832;DHT22;4452;50.756;4.472;2023-09-18T08:12:51;19.70;99.90
8832;DHT22;4452;50.756;4.472;2023-09-18T08:15:22;19.80;99.90
8832;DHT22;4452;50.756;4.472;2023-09-18T08:17:48;19.90;99.90
8832;DHT22;4452;50.756;4.472;2023-09-18T08:20:15;19.90;99.90
8832;DHT22;4452;50.756;4.472;2023-09-18T08:22:42;19.80;99.90
8832;DHT22;4452;50.756;4.472;2023-09-18T08:25:09;19.80;99.90
8832;DHT22;4452;50.756;4.472;2023-09-18T08:27:40;19.80;99.90
8832;DHT22;4452;50.756;4.472;2023-09-18T08:30:14;20.10;99.90
8832;DHT22;4452;50.756;4.472;2023-09-18T08:32:41;20.30;99.90
8832;DHT22;4452;50.756;4.472;2023-09-18T08:35:08;20.40;99.90
8832;DHT22;4452;50.756;4.472;2023-09-18T08:37:34;20.30;99.90
8832;DHT22;4452;50.756;4.472;2023-09-18T08:39:59;20.10;99.90
8832;DHT22;4452;50.756;4.472;2023-09-18T08:42:36;20.00;99.90
8832;DHT22;4452;50.756;4.472;2023-09-18T08:45:07;20.00;99.90
8832;DHT22;4452;50.756;4.472;2023-09-18T08:47:33;19.90;99.90
8832;DHT22;4452;50.756;4.472;2023-09-18T08:50:00;19.80;99.90
8832;DHT22;4452;50.756;4.472;2023-09-18T08:52:29;19.80;99.90
8832;DHT22;4452;50.756;4.472;2023-09-18T08:54:55;19.80;99.90
8832;DHT22;4452;50.756;4.472;2023-09-18T08:57:21;19.90;99.90
8832;DHT22;4452;50.756;4.472;2023-09-18T08:59:50;20.10;99.90
8832;DHT22;4452;50.756;4.472;2023-09-18T09:02:16;20.20;99.90
8832;DHT22;4452;50.756;4.472;2023-09-18T09:04:42;20.10;99.90
8832;DHT22;4452;50.756;4.472;2023-09-18T09:07:07;20.10;99.90
8832;DHT22;4452;50.756;4.472;2023-09-18T09:09:34;19.90;99.90
8832;DHT22;4452;50.756;4.472;2023-09-18T09:12:00;19.90;99.90
8832;DHT22;4452;50.756;4.472;2023-09-18T09:14:26;20.00;99.90
8832;DHT22;4452;50.756;4.472;2023-09-18T09:16:55;19.90;99.90
8832;DHT22;4452;50.756;4.472;2023-09-18T09:19:30;19.80;99.90
8832;DHT22;4452;50.756;4.472;2023-09-18T09:21:57;19.80;99.90
8832;DHT22;4452;50.756;4.472;2023-09-18T09:27:02;19.80;99.90
8832;DHT22;4452;50.756;4.472;2023-09-18T09:29:29;19.70;99.90
8832;DHT22;4452;50.756;4.472;2023-09-18T09:31:55;19.80;99.90
8832;DHT22;4452;50.756;4.472;2023-09-18T09:34:26;19.90;99.90
8832;DHT22;4452;50.756;4.472;2023-09-18T09:36:56;20.10;99.90
8832;DHT22;4452;50.756;4.472;2023-09-18T09:39:25;20.30;99.90
8832;DHT22;4452;50.756;4.472;2023-09-18T09:41:54;20.50;99.90
8832;DHT22;4452;50.756;4.472;2023-09-18T09:44:20;20.50;99.90
8832;DHT22;4452;50.756;4.472;2023-09-18T09:46:50;20.50;99.90
8832;DHT22;4452;50.756;4.472;2023-09-18T09:49:17;20.60;99.90
8832;DHT22;4452;50.756;4.472;2023-09-18T09:51:45;20.60;99.90
8832;DHT22;4452;50.756;4.472;2023-09-18T09:54:12;20.40;99.90
8832;DHT22;4452;50.756;4.472;2023-09-18T09:56:43;20.20;99.90
8832;DHT22;4452;50.756;4.472;2023-09-18T09:59:10;20.10;99.90
8832;DHT22;4452;50.756;4.472;2023-09-18T10:01:37;20.00;99.90
8832;DHT22;4452;50.756;4.472;2023-09-18T10:04:09;20.00;99.90
8832;DHT22;4452;50.756;4.472;2023-09-18T10:06:36;20.10;99.90
8832;DHT22;4452;50.756;4.472;2023-09-18T10:09:03;20.30;99.90
8832;DHT22;4452;50.756;4.472;2023-09-18T10:11:34;20.60;99.90
8832;DHT22;4452;50.756;4.472;2023-09-18T10:14:09;20.60;99.90
8832;DHT22;4452;50.756;4.472;2023-09-18T10:16:40;20.90;99.90
8832;DHT22;4452;50.756;4.472;2023-09-18T10:19:39;21.00;99.90
8832;DHT22;4452;50.756;4.472;2023-09-18T10:24:50;21.10;99.90
8832;DHT22;4452;50.756;4.472;2023-09-18T10:27:16;20.80;99.90
8832;DHT22;4452;50.756;4.472;2023-09-18T10:29:43;20.40;99.90
8832;DHT22;4452;50.756;4.472;2023-09-18T10:32:11;20.40;99.90
8832;DHT22;4452;50.756;4.472;2023-09-18T10:34:38;20.30;99.90
8832;DHT22;4452;50.756;4.472;2023-09-18T10:37:08;20.50;99.90
8832;DHT22;4452;50.756;4.472;2023-09-18T10:39:37;20.70;99.90
8832;DHT22;4452;50.756;4.472;2023-09-18T10:42:07;20.90;99.90
8832;DHT22;4452;50.756;4.472;2023-09-18T10:44:34;20.90;99.90
8832;DHT22;4452;50.756;4.472;2023-09-18T10:47:01;20.90;99.90
8832;DHT22;4452;50.756;4.472;2023-09-18T10:49:28;21.20;99.90
8832;DHT22;4452;50.756;4.472;2023-09-18T10:51:55;21.20;99.90
8832;DHT22;4452;50.756;4.472;2023-09-18T10:54:23;21.60;99.90
8832;DHT22;4452;50.756;4.472;2023-09-18T10:56:49;21.70;99.90
8832;DHT22;4452;50.756;4.472;2023-09-18T10:59:15;21.20;99.90
8832;DHT22;4452;50.756;4.472;2023-09-18T11:01:42;21.10;99.90
8832;DHT22;4452;50.756;4.472;2023-09-18T11:04:08;21.10;99.90
8832;DHT22;4452;50.756;4.472;2023-09-18T11:09:29;21.40;99.90
8832;DHT22;4452;50.756;4.472;2023-09-18T11:14:47;22.10;99.90
8832;DHT22;4452;50.756;4.472;2023-09-18T11:22:48;21.90;99.90
8832;DHT22;4452;50.756;4.472;2023-09-18T11:25:36;21.80;99.90
8832;DHT22;4452;50.756;4.472;2023-09-18T11:28:13;21.70;99.90
8832;DHT22;4452;50.756;4.472;2023-09-18T11:30:55;21.30;99.90
8832;DHT22;4452;50.756;4.472;2023-09-18T11:36:09;21.30;99.90
8832;DHT22;4452;50.756;4.472;2023-09-18T11:38:57;21.80;99.90
8832;DHT22;4452;50.756;4.472;2023-09-18T11:41:28;22.20;99.90
8832;DHT22;4452;50.756;4.472;2023-09-18T11:46:46;22.40;99.90
8832;DHT22;4452;50.756;4.472;2023-09-18T11:49:22;22.30;99.90
8832;DHT22;4452;50.756;4.472;2023-09-18T11:51:50;22.60;99.90
8832;DHT22;4452;50.756;4.472;2023-09-18T11:54:16;22.80;99.90
8832;DHT22;4452;50.756;4.472;2023-09-18T11:56:43;22.10;99.90
8832;DHT22;4452;50.756;4.472;2023-09-18T11:59:09;21.80;99.90
8832;DHT22;4452;50.756;4.472;2023-09-18T12:01:36;21.90;99.90
8832;DHT22;4452;50.756;4.472;2023-09-18T12:04:05;22.20;99.90
8832;DHT22;4452;50.756;4.472;2023-09-18T12:06:43;22.20;99.90
8832;DHT22;4452;50.756;4.472;2023-09-18T12:09:12;22.40;99.90
8832;DHT22;4452;50.756;4.472;2023-09-18T12:11:41;22.50;99.90
8832;DHT22;4452;50.756;4.472;2023-09-18T12:14:10;22.60;99.90
8832;DHT22;4452;50.756;4.472;2023-09-18T12:16:39;22.60;99.90
8832;DHT22;4452;50.756;4.472;2023-09-18T12:19:05;22.40;99.90
8832;DHT22;4452;50.756;4.472;2023-09-18T12:21:32;22.50;99.90
8832;DHT22;4452;50.756;4.472;2023-09-18T12:23:58;22.40;99.90
8832;DHT22;4452;50.756;4.472;2023-09-18T12:26:25;22.50;99.90
8832;DHT22;4452;50.756;4.472;2023-09-18T12:28:51;23.10;99.90
8832;DHT22;4452;50.756;4.472;2023-09-18T12:31:17;23.20;99.90
8832;DHT22;4452;50.756;4.472;2023-09-18T12:33:44;23.40;99.90
8832;DHT22;4452;50.756;4.472;2023-09-18T12:36:10;23.50;99.90
8832;DHT22;4452;50.756;4.472;2023-09-18T12:38:37;23.40;99.90
8832;DHT22;4452;50.756;4.472;2023-09-18T12:41:04;23.20;99.90
8832;DHT22;4452;50.756;4.472;2023-09-18T12:43:38;23.40;99.90
8832;DHT22;4452;50.756;4.472;2023-09-18T12:46:06;23.30;99.90
8832;DHT22;4452;50.756;4.472;2023-09-18T12:48:36;23.60;99.90
8832;DHT22;4452;50.756;4.472;2023-09-18T12:51:05;23.70;99.90
8832;DHT22;4452;50.756;4.472;2023-09-18T12:53:32;23.70;99.90
8832;DHT22;4452;50.756;4.472;2023-09-18T12:56:11;24.00;99.90
8832;DHT22;4452;50.756;4.472;2023-09-18T12:58:41;24.20;99.90
8832;DHT22;4452;50.756;4.472;2023-09-18T13:01:09;24.30;99.90
8832;DHT22;4452;50.756;4.472;2023-09-18T13:03:43;24.00;99.90
8832;DHT22;4452;50.756;4.472;2023-09-18T13:06:17;23.80;99.90
8832;DHT22;4452;50.756;4.472;2023-09-18T13:08:43;23.40;99.90
8832;DHT22;4452;50.756;4.472;2023-09-18T13:11:09;24.00;99.90
8832;DHT22;4452;50.756;4.472;2023-09-18T13:13:37;23.90;99.90
8832;DHT22;4452;50.756;4.472;2023-09-18T13:16:09;23.90;99.90
8832;DHT22;4452;50.756;4.472;2023-09-18T13:18:36;23.70;99.90
8832;DHT22;4452;50.756;4.472;2023-09-18T13:21:10;24.10;99.90
8832;DHT22;4452;50.756;4.472;2023-09-18T13:23:37;24.40;99.90
8832;DHT22;4452;50.756;4.472;2023-09-18T13:26:04;24.10;99.90
8832;DHT22;4452;50.756;4.472;2023-09-18T13:28:31;23.90;99.90
8832;DHT22;4452;50.756;4.472;2023-09-18T13:30:58;24.20;99.90
8832;DHT22;4452;50.756;4.472;2023-09-18T13:33:25;24.10;99.90
8832;DHT22;4452;50.756;4.472;2023-09-18T13:35:51;24.20;99.90
8832;DHT22;4452;50.756;4.472;2023-09-18T13:38:18;24.10;99.90
8832;DHT22;4452;50.756;4.472;2023-09-18T13:40:47;24.30;99.90
8832;DHT22;4452;50.756;4.472;2023-09-18T13:43:14;24.40;99.90
8832;DHT22;4452;50.756;4.472;2023-09-18T13:45:44;24.30;99.90
8832;DHT22;4452;50.756;4.472;2023-09-18T13:48:11;24.30;99.90
8832;DHT22;4452;50.756;4.472;2023-09-18T13:50:37;24.80;99.90
8832;DHT22;4452;50.756;4.472;2023-09-18T13:53:04;24.70;99.90
8832;DHT22;4452;50.756;4.472;2023-09-18T13:55:31;24.50;99.90
8832;DHT22;4452;50.756;4.472;2023-09-18T13:57:57;24.00;99.90
8832;DHT22;4452;50.756;4.472;2023-09-18T14:00:23;23.90;99.90
8832;DHT22;4452;50.756;4.472;2023-09-18T14:02:51;23.80;99.90
8832;DHT22;4452;50.756;4.472;2023-09-18T14:05:16;24.50;99.90
8832;DHT22;4452;50.756;4.472;2023-09-18T14:07:42;24.10;99.90
8832;DHT22;4452;50.756;4.472;2023-09-18T14:10:09;23.60;99.90
8832;DHT22;4452;50.756;4.472;2023-09-18T14:12:39;23.20;99.90
8832;DHT22;4452;50.756;4.472;2023-09-18T14:15:06;23.20;99.90
8832;DHT22;4452;50.756;4.472;2023-09-18T14:17:33;22.90;99.90
8832;DHT22;4452;50.756;4.472;2023-09-18T14:19:59;23.10;99.90
8832;DHT22;4452;50.756;4.472;2023-09-18T14:22:25;23.10;99.90
8832;DHT22;4452;50.756;4.472;2023-09-18T14:24:51;22.80;99.90
8832;DHT22;4452;50.756;4.472;2023-09-18T14:27:17;22.70;99.90
8832;DHT22;4452;50.756;4.472;2023-09-18T14:29:43;22.70;99.90
8832;DHT22;4452;50.756;4.472;2023-09-18T14:32:09;22.60;99.90
8832;DHT22;4452;50.756;4.472;2023-09-18T14:34:35;22.50;99.90
8832;DHT22;4452;50.756;4.472;2023-09-18T14:37:02;22.30;99.90
8832;DHT22;4452;50.756;4.472;2023-09-18T14:39:32;22.20;99.90
8832;DHT22;4452;50.756;4.472;2023-09-18T14:41:58;22.20;99.90
8832;DHT22;4452;50.756;4.472;2023-09-18T14:44:25;22.00;99.90
8832;DHT22;4452;50.756;4.472;2023-09-18T14:46:56;22.00;99.90
8832;DHT22;4452;50.756;4.472;2023-09-18T14:49:22;22.00;99.90
8832;DHT22;4452;50.756;4.472;2023-09-18T14:51:48;22.00;99.90
8832;DHT22;4452;50.756;4.472;2023-09-18T14:54:16;21.90;99.90
8832;DHT22;4452;50.756;4.472;2023-09-18T14:56:41;21.70;99.90
8832;DHT22;4452;50.756;4.472;2023-09-18T14:59:07;21.50;99.90
8832;DHT22;4452;50.756;4.472;2023-09-18T15:01:34;20.60;99.90
8832;DHT22;4452;50.756;4.472;2023-09-18T15:03:59;20.20;99.90
8832;DHT22;4452;50.756;4.472;2023-09-18T15:06:25;18.20;99.90
8832;DHT22;4452;50.756;4.472;2023-09-18T15:08:52;17.70;99.90
8832;DHT22;4452;50.756;4.472;2023-09-18T15:11:18;17.80;99.90
8832;DHT22;4452;50.756;4.472;2023-09-18T15:13:45;17.80;99.90
8832;DHT22;4452;50.756;4.472;2023-09-18T15:16:11;17.70;99.90
8832;DHT22;4452;50.756;4.472;2023-09-18T15:18:38;17.80;99.90
8832;DHT22;4452;50.756;4.472;2023-09-18T15:21:05;17.80;99.90
8832;DHT22;4452;50.756;4.472;2023-09-18T15:23:31;18.00;99.90
8832;DHT22;4452;50.756;4.472;2023-09-18T15:25:56;18.10;99.90
8832;DHT22;4452;50.756;4.472;2023-09-18T15:28:26;18.30;99.90
8832;DHT22;4452;50.756;4.472;2023-09-18T15:30:54;18.40;99.90
8832;DHT22;4452;50.756;4.472;2023-09-18T15:33:20;18.60;99.90
8832;DHT22;4452;50.756;4.472;2023-09-18T15:35:53;18.80;99.90
8832;DHT22;4452;50.756;4.472;2023-09-18T15:38:21;18.80;99.90
8832;DHT22;4452;50.756;4.472;2023-09-18T15:40:47;18.90;99.90
8832;DHT22;4452;50.756;4.472;2023-09-18T15:43:13;19.00;99.90
8832;DHT22;4452;50.756;4.472;2023-09-18T15:45:39;18.90;99.90
8832;DHT22;4452;50.756;4.472;2023-09-18T15:48:05;19.00;99.90
8832;DHT22;4452;50.756;4.472;2023-09-18T15:50:31;19.00;99.90
8832;DHT22;4452;50.756;4.472;2023-09-18T15:52:57;19.00;99.90
8832;DHT22;4452;50.756;4.472;2023-09-18T15:55:23;19.10;99.90
8832;DHT22;4452;50.756;4.472;2023-09-18T15:57:49;19.40;99.90
8832;DHT22;4452;50.756;4.472;2023-09-18T16:00:16;19.80;99.90
8832;DHT22;4452;50.756;4.472;2023-09-18T16:02:43;20.30;99.90
8832;DHT22;4452;50.756;4.472;2023-09-18T16:05:09;20.50;99.90
8832;DHT22;4452;50.756;4.472;2023-09-18T16:07:36;20.70;99.90
8832;DHT22;4452;50.756;4.472;2023-09-18T16:10:02;20.40;99.90
8832;DHT22;4452;50.756;4.472;2023-09-18T16:12:30;20.10;99.90
8832;DHT22;4452;50.756;4.472;2023-09-18T16:14:56;19.80;99.90
8832;DHT22;4452;50.756;4.472;2023-09-18T16:17:21;19.60;99.90
8832;DHT22;4452;50.756;4.472;2023-09-18T16:19:47;19.50;99.90
8832;DHT22;4452;50.756;4.472;2023-09-18T16:22:13;19.30;99.90
8832;DHT22;4452;50.756;4.472;2023-09-18T16:24:43;19.30;99.90
8832;DHT22;4452;50.756;4.472;2023-09-18T16:27:09;19.30;99.90